KASL

Harrison County Airport

Marshall, Texas, USA
METAR KASL 191135Z AUTO 00000KT 3SM OVC075 09/08 A2999 RMK AO1 P0008 T00860078
Observed Flight Rules
Dec-19 @ 11:35 UTC (13 minutes ago) Marginal Visual Flight Rules
Visibility Clouds
3 miles
  • Overcast at 7,500' AGL
Temperatures Readings Precipitation
Current 9°C / 48°F
Dewpoint 8°C / 46°F
Humidity 94%
Altimeter 29.99" Hg
Pressure 1016 hPa
Elevation 109
Current Rain 0.08
METAR KASL 191135Z AUTO 00000KT 3SM OVC075 09/08 A2999 RMK AO1 P0008 T00860078
Observed Flight Rules
Dec-19 @ 11:35 UTC
(13 minutes ago)
MVFR
Clouds
  • Overcast at 7,500' AGL
Temperature Dewpoint
9°C / 48°F 8°C / 46°F
Humidity Altimeter Pressure
94% 29.99" Hg 1016 hPa
Current Rain
0.08